KBIH/BIH METAR and TAF weather

Enter ICAO airport designator
Station Type Date Time Source
KBIH METAR 2019/05/20 10:56 UTC NOAA

KBIH 201056Z AUTO 36006KT 10SM CLR 03/M07 A2976 RMK AO2 SLP059 T00281067


Station Type Date Time Source
KBIH Decoded METAR 2019/05/20 10:56 UTC NOAA

BISHOP AIRPORT, CA, United States (KBIH) 37-22N 118-22W 1253M
May 20, 2019 - 06:56 AM EDT / 2019.05.20 1056 UTC
Wind: from the N (360 degrees) at 7 MPH (6 KT):0
Visibility: 10 mile(s):0
Sky conditions: clear
Temperature: 37.0 F (2.8 C)
Dew Point: 19.9 F (-6.7 C)
Relative Humidity: 49%
Pressure (altimeter): 29.76 in. Hg (1007 hPa)
ob: KBIH 201056Z AUTO 36006KT 10SM CLR 03/M07 A2976 RMK AO2 SLP059 T00281067
cycle: 11

Station Type Date Time Source
KBIH TAF 2019/05/20 12:24 UTC NOAA

TAF KBIH 201120Z 2012/2112 35010KT P6SM FEW120 SCT250
FM202200 30014G24KT P6SM FEW120
FM210300 34012KT P6SM BKN250

Example: see airport list